Brochet, Canada
Current Conditions -  °F | °C
As of 4:25 PM on Friday 24 Oct 2014 (Local Time) from CYYL Reporting Station
Light Rain Light Rain  
Wind Chill: 33°   Ceiling: 2200
Heat Index: 41°   Visibility: 6mi
Dew Point: 39°   Wind: 15mph
Humidity: 93%   Direction: 250°WSW
Pressure: 29.36"   Gusts: 25mph
Location:  57.88°N, 101.67°W
Report Text: CYYL 242125Z AUTO 25013G22KT 6SM -RA BR BKN022 OVC027 05/04 A2936 RMK SLP960
Loading
Personal Weather Stations






























Interactive Weather Map
Tropical Storm Tracking
New forecast layout! Learn more

10-Day Weather Forecast

Advertisements
Track Severe Weather on mobile